sensor_id;sensor_type;location;lat;lon;timestamp;temperature;humidity
22769;DHT22;13001;51.968;5.918;2024-02-15T00:01:06;13.80;99.90
22769;DHT22;13001;51.968;5.918;2024-02-15T00:03:34;13.80;99.90
22769;DHT22;13001;51.968;5.918;2024-02-15T00:06:02;13.90;99.90
22769;DHT22;13001;51.968;5.918;2024-02-15T00:08:30;13.80;99.90
22769;DHT22;13001;51.968;5.918;2024-02-15T00:10:57;13.80;99.90
22769;DHT22;13001;51.968;5.918;2024-02-15T00:13:25;13.90;99.90
22769;DHT22;13001;51.968;5.918;2024-02-15T00:15:52;13.90;99.90
22769;DHT22;13001;51.968;5.918;2024-02-15T00:18:20;13.80;99.90
22769;DHT22;13001;51.968;5.918;2024-02-15T00:20:49;13.80;99.90
22769;DHT22;13001;51.968;5.918;2024-02-15T00:23:17;13.80;99.90
22769;DHT22;13001;51.968;5.918;2024-02-15T00:25:44;13.90;99.90
22769;DHT22;13001;51.968;5.918;2024-02-15T00:28:12;13.90;99.90
22769;DHT22;13001;51.968;5.918;2024-02-15T00:30:39;13.90;99.90
22769;DHT22;13001;51.968;5.918;2024-02-15T00:33:07;13.90;99.90
22769;DHT22;13001;51.968;5.918;2024-02-15T00:35:34;13.90;99.90
22769;DHT22;13001;51.968;5.918;2024-02-15T00:38:02;13.90;99.90
22769;DHT22;13001;51.968;5.918;2024-02-15T00:40:30;13.90;99.90
22769;DHT22;13001;51.968;5.918;2024-02-15T00:42:59;13.90;99.90
22769;DHT22;13001;51.968;5.918;2024-02-15T00:45:26;13.90;99.90
22769;DHT22;13001;51.968;5.918;2024-02-15T00:47:54;13.90;99.90
22769;DHT22;13001;51.968;5.918;2024-02-15T00:50:22;13.90;99.90
22769;DHT22;13001;51.968;5.918;2024-02-15T00:52:50;13.90;99.90
22769;DHT22;13001;51.968;5.918;2024-02-15T00:55:17;13.90;99.90
22769;DHT22;13001;51.968;5.918;2024-02-15T00:57:47;13.90;99.90
22769;DHT22;13001;51.968;5.918;2024-02-15T01:00:16;13.90;99.90
22769;DHT22;13001;51.968;5.918;2024-02-15T01:02:43;13.90;99.90
22769;DHT22;13001;51.968;5.918;2024-02-15T01:05:12;13.90;99.90
22769;DHT22;13001;51.968;5.918;2024-02-15T01:07:42;13.90;99.90
22769;DHT22;13001;51.968;5.918;2024-02-15T01:10:09;13.90;99.90
22769;DHT22;13001;51.968;5.918;2024-02-15T01:12:36;13.90;99.90
22769;DHT22;13001;51.968;5.918;2024-02-15T01:15:04;13.90;99.90
22769;DHT22;13001;51.968;5.918;2024-02-15T01:17:33;13.90;99.90
22769;DHT22;13001;51.968;5.918;2024-02-15T01:20:00;13.90;99.90
22769;DHT22;13001;51.968;5.918;2024-02-15T01:22:28;13.90;99.90
22769;DHT22;13001;51.968;5.918;2024-02-15T01:24:55;13.90;99.90
22769;DHT22;13001;51.968;5.918;2024-02-15T01:27:23;13.90;99.90
22769;DHT22;13001;51.968;5.918;2024-02-15T01:29:51;13.90;99.90
22769;DHT22;13001;51.968;5.918;2024-02-15T01:32:18;13.90;99.90
22769;DHT22;13001;51.968;5.918;2024-02-15T01:34:46;13.90;99.90
22769;DHT22;13001;51.968;5.918;2024-02-15T01:37:13;13.90;99.90
22769;DHT22;13001;51.968;5.918;2024-02-15T01:39:41;13.90;99.90
22769;DHT22;13001;51.968;5.918;2024-02-15T01:42:08;13.90;99.90
22769;DHT22;13001;51.968;5.918;2024-02-15T01:44:36;13.90;99.90
22769;DHT22;13001;51.968;5.918;2024-02-15T01:47:06;13.90;99.90
22769;DHT22;13001;51.968;5.918;2024-02-15T01:49:35;13.90;99.90
22769;DHT22;13001;51.968;5.918;2024-02-15T01:52:04;13.90;99.90
22769;DHT22;13001;51.968;5.918;2024-02-15T01:54:33;13.90;99.90
22769;DHT22;13001;51.968;5.918;2024-02-15T01:57:03;13.80;99.90
22769;DHT22;13001;51.968;5.918;2024-02-15T01:59:31;13.90;99.90
22769;DHT22;13001;51.968;5.918;2024-02-15T02:01:59;13.90;99.90
22769;DHT22;13001;51.968;5.918;2024-02-15T02:04:27;13.90;99.90
22769;DHT22;13001;51.968;5.918;2024-02-15T02:06:55;13.90;99.90
22769;DHT22;13001;51.968;5.918;2024-02-15T02:09:25;13.90;99.90
22769;DHT22;13001;51.968;5.918;2024-02-15T02:11:53;13.80;99.90
22769;DHT22;13001;51.968;5.918;2024-02-15T02:14:20;13.90;99.90
22769;DHT22;13001;51.968;5.918;2024-02-15T02:16:49;13.90;99.90
22769;DHT22;13001;51.968;5.918;2024-02-15T02:19:16;13.90;99.90
22769;DHT22;13001;51.968;5.918;2024-02-15T02:21:44;13.90;99.90
22769;DHT22;13001;51.968;5.918;2024-02-15T02:24:13;13.90;99.90
22769;DHT22;13001;51.968;5.918;2024-02-15T02:26:42;13.90;99.90
22769;DHT22;13001;51.968;5.918;2024-02-15T02:29:10;13.90;99.90
22769;DHT22;13001;51.968;5.918;2024-02-15T02:31:38;13.90;99.90
22769;DHT22;13001;51.968;5.918;2024-02-15T02:34:06;13.90;99.90
22769;DHT22;13001;51.968;5.918;2024-02-15T02:36:36;13.90;99.90
22769;DHT22;13001;51.968;5.918;2024-02-15T02:39:04;13.90;99.90
22769;DHT22;13001;51.968;5.918;2024-02-15T02:41:34;13.90;99.90
22769;DHT22;13001;51.968;5.918;2024-02-15T02:44:02;13.90;99.90
22769;DHT22;13001;51.968;5.918;2024-02-15T02:46:29;13.90;99.90
22769;DHT22;13001;51.968;5.918;2024-02-15T02:48:57;13.90;99.90
22769;DHT22;13001;51.968;5.918;2024-02-15T02:51:24;13.90;99.90
22769;DHT22;13001;51.968;5.918;2024-02-15T02:53:53;13.80;99.90
22769;DHT22;13001;51.968;5.918;2024-02-15T02:56:20;13.90;99.90
22769;DHT22;13001;51.968;5.918;2024-02-15T02:58:48;13.80;99.90
22769;DHT22;13001;51.968;5.918;2024-02-15T03:01:16;13.80;99.90
22769;DHT22;13001;51.968;5.918;2024-02-15T03:03:44;13.80;99.90
22769;DHT22;13001;51.968;5.918;2024-02-15T03:06:12;13.80;99.90
22769;DHT22;13001;51.968;5.918;2024-02-15T03:08:40;13.80;99.90
22769;DHT22;13001;51.968;5.918;2024-02-15T03:11:09;13.80;99.90
22769;DHT22;13001;51.968;5.918;2024-02-15T03:13:37;13.80;99.90
22769;DHT22;13001;51.968;5.918;2024-02-15T03:16:04;13.80;99.90
22769;DHT22;13001;51.968;5.918;2024-02-15T03:18:32;13.80;99.90
22769;DHT22;13001;51.968;5.918;2024-02-15T03:21:00;13.70;99.90
22769;DHT22;13001;51.968;5.918;2024-02-15T03:23:27;13.70;99.90
22769;DHT22;13001;51.968;5.918;2024-02-15T03:25:55;13.70;99.90
22769;DHT22;13001;51.968;5.918;2024-02-15T03:28:23;13.60;99.90
22769;DHT22;13001;51.968;5.918;2024-02-15T03:30:50;13.60;99.90
22769;DHT22;13001;51.968;5.918;2024-02-15T03:33:19;13.60;99.90
22769;DHT22;13001;51.968;5.918;2024-02-15T03:35:48;13.60;99.90
22769;DHT22;13001;51.968;5.918;2024-02-15T03:38:15;13.60;99.90
22769;DHT22;13001;51.968;5.918;2024-02-15T03:40:43;13.60;99.90
22769;DHT22;13001;51.968;5.918;2024-02-15T03:43:11;13.60;99.90
22769;DHT22;13001;51.968;5.918;2024-02-15T03:45:39;13.60;99.90
22769;DHT22;13001;51.968;5.918;2024-02-15T03:48:08;13.60;99.90
22769;DHT22;13001;51.968;5.918;2024-02-15T03:50:36;13.60;99.90
22769;DHT22;13001;51.968;5.918;2024-02-15T03:53:05;13.50;99.90
22769;DHT22;13001;51.968;5.918;2024-02-15T03:55:32;13.60;99.90
22769;DHT22;13001;51.968;5.918;2024-02-15T03:58:02;13.50;99.90
22769;DHT22;13001;51.968;5.918;2024-02-15T04:00:29;13.50;99.90
22769;DHT22;13001;51.968;5.918;2024-02-15T04:02:57;13.50;99.90
22769;DHT22;13001;51.968;5.918;2024-02-15T04:05:24;13.50;99.90
22769;DHT22;13001;51.968;5.918;2024-02-15T04:07:52;13.50;99.90
22769;DHT22;13001;51.968;5.918;2024-02-15T04:10:20;13.60;99.90
22769;DHT22;13001;51.968;5.918;2024-02-15T04:12:47;13.60;99.90
22769;DHT22;13001;51.968;5.918;2024-02-15T04:15:15;13.60;99.90
22769;DHT22;13001;51.968;5.918;2024-02-15T04:17:43;13.60;99.90
22769;DHT22;13001;51.968;5.918;2024-02-15T04:20:11;13.50;99.90
22769;DHT22;13001;51.968;5.918;2024-02-15T04:22:41;13.50;99.90
22769;DHT22;13001;51.968;5.918;2024-02-15T04:25:09;13.40;99.90
22769;DHT22;13001;51.968;5.918;2024-02-15T04:27:39;13.40;99.90
22769;DHT22;13001;51.968;5.918;2024-02-15T04:30:08;13.40;99.90
22769;DHT22;13001;51.968;5.918;2024-02-15T04:32:36;13.40;99.90
22769;DHT22;13001;51.968;5.918;2024-02-15T04:35:04;13.50;99.90
22769;DHT22;13001;51.968;5.918;2024-02-15T04:37:32;13.50;99.90
22769;DHT22;13001;51.968;5.918;2024-02-15T04:40:01;13.50;99.90
22769;DHT22;13001;51.968;5.918;2024-02-15T04:42:30;13.50;99.90
22769;DHT22;13001;51.968;5.918;2024-02-15T04:44:59;13.50;99.90
22769;DHT22;13001;51.968;5.918;2024-02-15T04:47:27;13.50;99.90
22769;DHT22;13001;51.968;5.918;2024-02-15T04:49:56;13.50;99.90
22769;DHT22;13001;51.968;5.918;2024-02-15T04:52:24;13.50;99.90
22769;DHT22;13001;51.968;5.918;2024-02-15T04:54:51;13.50;99.90
22769;DHT22;13001;51.968;5.918;2024-02-15T04:57:20;13.50;99.90
22769;DHT22;13001;51.968;5.918;2024-02-15T04:59:48;13.50;99.90
22769;DHT22;13001;51.968;5.918;2024-02-15T05:02:16;13.50;99.90
22769;DHT22;13001;51.968;5.918;2024-02-15T05:04:43;13.50;99.90
22769;DHT22;13001;51.968;5.918;2024-02-15T05:07:11;13.50;99.90
22769;DHT22;13001;51.968;5.918;2024-02-15T05:09:40;13.60;99.90
22769;DHT22;13001;51.968;5.918;2024-02-15T05:12:08;13.60;99.90
22769;DHT22;13001;51.968;5.918;2024-02-15T05:14:35;13.60;99.90
22769;DHT22;13001;51.968;5.918;2024-02-15T05:17:03;13.60;99.90
22769;DHT22;13001;51.968;5.918;2024-02-15T05:19:32;13.60;99.90
22769;DHT22;13001;51.968;5.918;2024-02-15T05:22:01;13.60;99.90
22769;DHT22;13001;51.968;5.918;2024-02-15T05:24:30;13.60;99.90
22769;DHT22;13001;51.968;5.918;2024-02-15T05:26:58;13.50;99.90
22769;DHT22;13001;51.968;5.918;2024-02-15T05:29:25;13.60;99.90
22769;DHT22;13001;51.968;5.918;2024-02-15T05:31:54;13.50;99.90
22769;DHT22;13001;51.968;5.918;2024-02-15T05:34:23;13.50;99.90
22769;DHT22;13001;51.968;5.918;2024-02-15T05:36:50;13.50;99.90
22769;DHT22;13001;51.968;5.918;2024-02-15T05:39:18;13.50;99.90
22769;DHT22;13001;51.968;5.918;2024-02-15T05:41:48;13.50;99.90
22769;DHT22;13001;51.968;5.918;2024-02-15T05:44:15;13.50;99.90
22769;DHT22;13001;51.968;5.918;2024-02-15T05:46:45;13.50;99.90
22769;DHT22;13001;51.968;5.918;2024-02-15T05:49:13;13.50;99.90
22769;DHT22;13001;51.968;5.918;2024-02-15T05:51:43;13.50;99.90
22769;DHT22;13001;51.968;5.918;2024-02-15T05:54:11;13.50;99.90
22769;DHT22;13001;51.968;5.918;2024-02-15T05:56:39;13.50;99.90
22769;DHT22;13001;51.968;5.918;2024-02-15T05:59:06;13.50;99.90
22769;DHT22;13001;51.968;5.918;2024-02-15T06:01:36;13.50;99.90
22769;DHT22;13001;51.968;5.918;2024-02-15T06:04:05;13.50;99.90
22769;DHT22;13001;51.968;5.918;2024-02-15T06:06:37;13.50;99.90
22769;DHT22;13001;51.968;5.918;2024-02-15T06:09:05;13.50;99.90
22769;DHT22;13001;51.968;5.918;2024-02-15T06:11:32;13.40;99.90
22769;DHT22;13001;51.968;5.918;2024-02-15T06:14:00;13.40;99.90
22769;DHT22;13001;51.968;5.918;2024-02-15T06:16:27;13.40;99.90
22769;DHT22;13001;51.968;5.918;2024-02-15T06:18:55;13.40;99.90
22769;DHT22;13001;51.968;5.918;2024-02-15T06:21:22;13.30;99.90
22769;DHT22;13001;51.968;5.918;2024-02-15T06:23:50;13.40;99.90
22769;DHT22;13001;51.968;5.918;2024-02-15T06:26:17;13.30;99.90
22769;DHT22;13001;51.968;5.918;2024-02-15T06:28:47;13.30;99.90
22769;DHT22;13001;51.968;5.918;2024-02-15T06:31:32;13.30;99.90
22769;DHT22;13001;51.968;5.918;2024-02-15T06:34:17;13.30;99.90
22769;DHT22;13001;51.968;5.918;2024-02-15T06:37:03;13.30;99.90
22769;DHT22;13001;51.968;5.918;2024-02-15T06:39:48;13.40;99.90
22769;DHT22;13001;51.968;5.918;2024-02-15T06:42:16;13.40;99.90
22769;DHT22;13001;51.968;5.918;2024-02-15T06:44:47;13.40;99.90
22769;DHT22;13001;51.968;5.918;2024-02-15T06:47:15;13.40;99.90
22769;DHT22;13001;51.968;5.918;2024-02-15T06:49:46;13.40;99.90
22769;DHT22;13001;51.968;5.918;2024-02-15T06:52:15;13.40;99.90
22769;DHT22;13001;51.968;5.918;2024-02-15T06:54:42;13.40;99.90
22769;DHT22;13001;51.968;5.918;2024-02-15T06:57:11;13.40;99.90
22769;DHT22;13001;51.968;5.918;2024-02-15T06:59:39;13.50;99.90
22769;DHT22;13001;51.968;5.918;2024-02-15T07:02:07;13.50;99.90
22769;DHT22;13001;51.968;5.918;2024-02-15T07:04:34;13.50;99.90
22769;DHT22;13001;51.968;5.918;2024-02-15T07:07:03;13.50;99.90
22769;DHT22;13001;51.968;5.918;2024-02-15T07:09:30;13.50;99.90
22769;DHT22;13001;51.968;5.918;2024-02-15T07:11:59;13.60;99.90
22769;DHT22;13001;51.968;5.918;2024-02-15T07:14:26;13.60;99.90
22769;DHT22;13001;51.968;5.918;2024-02-15T07:16:54;13.60;99.90
22769;DHT22;13001;51.968;5.918;2024-02-15T07:19:24;13.60;99.90
22769;DHT22;13001;51.968;5.918;2024-02-15T07:21:53;13.60;99.90
22769;DHT22;13001;51.968;5.918;2024-02-15T07:24:21;13.60;99.90
22769;DHT22;13001;51.968;5.918;2024-02-15T07:26:49;13.60;99.90
22769;DHT22;13001;51.968;5.918;2024-02-15T07:29:18;13.60;99.90
22769;DHT22;13001;51.968;5.918;2024-02-15T07:31:46;13.60;99.90
22769;DHT22;13001;51.968;5.918;2024-02-15T07:34:14;13.60;99.90
22769;DHT22;13001;51.968;5.918;2024-02-15T07:36:42;13.60;99.90
22769;DHT22;13001;51.968;5.918;2024-02-15T07:39:11;13.70;99.90
22769;DHT22;13001;51.968;5.918;2024-02-15T07:41:41;13.70;99.90
22769;DHT22;13001;51.968;5.918;2024-02-15T07:44:08;13.70;99.90
22769;DHT22;13001;51.968;5.918;2024-02-15T07:46:36;13.70;99.90
22769;DHT22;13001;51.968;5.918;2024-02-15T07:49:05;13.80;99.90
22769;DHT22;13001;51.968;5.918;2024-02-15T07:51:33;13.80;99.90
22769;DHT22;13001;51.968;5.918;2024-02-15T07:54:02;13.80;99.90
22769;DHT22;13001;51.968;5.918;2024-02-15T07:56:31;13.80;99.90
22769;DHT22;13001;51.968;5.918;2024-02-15T07:58:58;13.80;99.90
22769;DHT22;13001;51.968;5.918;2024-02-15T08:01:26;13.80;99.90
22769;DHT22;13001;51.968;5.918;2024-02-15T08:03:54;13.80;99.90
22769;DHT22;13001;51.968;5.918;2024-02-15T08:06:21;13.80;99.90
22769;DHT22;13001;51.968;5.918;2024-02-15T08:08:52;13.80;99.90
22769;DHT22;13001;51.968;5.918;2024-02-15T08:11:20;13.80;99.90
22769;DHT22;13001;51.968;5.918;2024-02-15T08:13:49;13.90;99.90
22769;DHT22;13001;51.968;5.918;2024-02-15T08:16:22;13.80;99.90
22769;DHT22;13001;51.968;5.918;2024-02-15T08:18:51;13.90;99.90
22769;DHT22;13001;51.968;5.918;2024-02-15T08:21:28;13.90;99.90
22769;DHT22;13001;51.968;5.918;2024-02-15T08:23:57;13.90;99.90
22769;DHT22;13001;51.968;5.918;2024-02-15T08:26:25;13.90;99.90
22769;DHT22;13001;51.968;5.918;2024-02-15T08:28:52;13.90;99.90
22769;DHT22;13001;51.968;5.918;2024-02-15T08:31:21;14.00;99.90
22769;DHT22;13001;51.968;5.918;2024-02-15T08:33:50;14.00;99.90
22769;DHT22;13001;51.968;5.918;2024-02-15T08:36:19;14.00;99.90
22769;DHT22;13001;51.968;5.918;2024-02-15T08:38:49;14.10;99.90
22769;DHT22;13001;51.968;5.918;2024-02-15T08:41:18;14.10;99.90
22769;DHT22;13001;51.968;5.918;2024-02-15T08:43:47;14.10;99.90
22769;DHT22;13001;51.968;5.918;2024-02-15T08:46:17;14.10;99.90
22769;DHT22;13001;51.968;5.918;2024-02-15T08:48:47;14.20;99.90
22769;DHT22;13001;51.968;5.918;2024-02-15T08:51:14;14.20;99.90
22769;DHT22;13001;51.968;5.918;2024-02-15T08:53:43;14.20;99.90
22769;DHT22;13001;51.968;5.918;2024-02-15T08:56:11;14.20;99.90
22769;DHT22;13001;51.968;5.918;2024-02-15T08:58:39;14.20;99.90
22769;DHT22;13001;51.968;5.918;2024-02-15T09:01:07;14.20;99.90
22769;DHT22;13001;51.968;5.918;2024-02-15T09:03:35;14.20;99.90
22769;DHT22;13001;51.968;5.918;2024-02-15T09:06:02;14.10;99.90
22769;DHT22;13001;51.968;5.918;2024-02-15T09:08:31;14.10;99.90
22769;DHT22;13001;51.968;5.918;2024-02-15T09:11:00;14.10;99.90
22769;DHT22;13001;51.968;5.918;2024-02-15T09:13:27;14.10;99.90
22769;DHT22;13001;51.968;5.918;2024-02-15T09:15:55;14.10;99.90
22769;DHT22;13001;51.968;5.918;2024-02-15T09:18:22;14.10;99.90
22769;DHT22;13001;51.968;5.918;2024-02-15T09:20:50;14.10;99.90
22769;DHT22;13001;51.968;5.918;2024-02-15T09:23:19;14.10;99.90
22769;DHT22;13001;51.968;5.918;2024-02-15T09:25:46;14.10;99.90
22769;DHT22;13001;51.968;5.918;2024-02-15T09:28:17;14.10;99.90
22769;DHT22;13001;51.968;5.918;2024-02-15T09:30:49;14.00;99.90
22769;DHT22;13001;51.968;5.918;2024-02-15T09:33:21;14.00;99.90
22769;DHT22;13001;51.968;5.918;2024-02-15T09:35:49;14.00;99.90
22769;DHT22;13001;51.968;5.918;2024-02-15T09:38:16;13.90;99.90
22769;DHT22;13001;51.968;5.918;2024-02-15T09:40:50;13.90;99.90
22769;DHT22;13001;51.968;5.918;2024-02-15T09:43:18;13.90;99.90
22769;DHT22;13001;51.968;5.918;2024-02-15T09:45:47;13.90;99.90
22769;DHT22;13001;51.968;5.918;2024-02-15T09:48:16;13.90;99.90
22769;DHT22;13001;51.968;5.918;2024-02-15T09:50:45;14.00;99.90
22769;DHT22;13001;51.968;5.918;2024-02-15T09:53:15;14.00;99.90
22769;DHT22;13001;51.968;5.918;2024-02-15T09:55:44;14.00;99.90
22769;DHT22;13001;51.968;5.918;2024-02-15T09:58:12;14.00;99.90
22769;DHT22;13001;51.968;5.918;2024-02-15T10:00:40;14.00;99.90
22769;DHT22;13001;51.968;5.918;2024-02-15T10:03:10;14.10;99.90
22769;DHT22;13001;51.968;5.918;2024-02-15T10:05:39;14.10;99.90
22769;DHT22;13001;51.968;5.918;2024-02-15T10:08:07;14.10;99.90
22769;DHT22;13001;51.968;5.918;2024-02-15T10:10:36;14.10;99.90
22769;DHT22;13001;51.968;5.918;2024-02-15T10:13:04;14.00;99.90
22769;DHT22;13001;51.968;5.918;2024-02-15T10:15:38;14.10;99.90
22769;DHT22;13001;51.968;5.918;2024-02-15T10:18:09;14.10;99.90
22769;DHT22;13001;51.968;5.918;2024-02-15T10:20:39;14.30;99.90
22769;DHT22;13001;51.968;5.918;2024-02-15T10:23:10;14.40;99.90
22769;DHT22;13001;51.968;5.918;2024-02-15T10:25:39;14.40;99.90
22769;DHT22;13001;51.968;5.918;2024-02-15T10:28:09;14.50;99.90
22769;DHT22;13001;51.968;5.918;2024-02-15T10:30:38;14.50;99.90
22769;DHT22;13001;51.968;5.918;2024-02-15T10:33:06;14.50;99.90
22769;DHT22;13001;51.968;5.918;2024-02-15T10:35:37;14.40;99.90
22769;DHT22;13001;51.968;5.918;2024-02-15T10:38:09;14.50;99.90
22769;DHT22;13001;51.968;5.918;2024-02-15T10:40:38;14.50;99.90
22769;DHT22;13001;51.968;5.918;2024-02-15T10:43:07;14.50;99.90
22769;DHT22;13001;51.968;5.918;2024-02-15T10:45:37;14.50;99.90
22769;DHT22;13001;51.968;5.918;2024-02-15T10:48:11;14.50;99.90
22769;DHT22;13001;51.968;5.918;2024-02-15T10:50:36;14.50;99.90
22769;DHT22;13001;51.968;5.918;2024-02-15T10:53:16;14.50;99.90
22769;DHT22;13001;51.968;5.918;2024-02-15T10:55:40;14.50;99.90
22769;DHT22;13001;51.968;5.918;2024-02-15T10:58:11;14.50;99.90
22769;DHT22;13001;51.968;5.918;2024-02-15T11:00:41;14.50;99.90
22769;DHT22;13001;51.968;5.918;2024-02-15T11:03:11;14.60;99.90
22769;DHT22;13001;51.968;5.918;2024-02-15T11:05:41;14.60;99.90
22769;DHT22;13001;51.968;5.918;2024-02-15T11:08:10;14.60;99.90
22769;DHT22;13001;51.968;5.918;2024-02-15T11:10:39;14.60;99.90
22769;DHT22;13001;51.968;5.918;2024-02-15T11:13:10;14.60;99.90
22769;DHT22;13001;51.968;5.918;2024-02-15T11:15:44;14.60;99.90
22769;DHT22;13001;51.968;5.918;2024-02-15T11:18:13;14.80;99.90
22769;DHT22;13001;51.968;5.918;2024-02-15T11:23:23;14.90;99.90
22769;DHT22;13001;51.968;5.918;2024-02-15T11:25:45;15.00;99.90
22769;DHT22;13001;51.968;5.918;2024-02-15T11:30:56;15.10;99.90
22769;DHT22;13001;51.968;5.918;2024-02-15T11:33:31;15.00;99.90
22769;DHT22;13001;51.968;5.918;2024-02-15T11:36:12;15.00;99.90
22769;DHT22;13001;51.968;5.918;2024-02-15T11:38:41;14.90;99.90
22769;DHT22;13001;51.968;5.918;2024-02-15T11:41:10;14.90;99.90
22769;DHT22;13001;51.968;5.918;2024-02-15T11:46:15;14.80;99.90
22769;DHT22;13001;51.968;5.918;2024-02-15T11:48:48;14.80;99.90
22769;DHT22;13001;51.968;5.918;2024-02-15T11:51:26;15.00;99.90
22769;DHT22;13001;51.968;5.918;2024-02-15T11:54:09;15.10;99.90
22769;DHT22;13001;51.968;5.918;2024-02-15T11:59:14;15.30;99.90
22769;DHT22;13001;51.968;5.918;2024-02-15T12:01:59;15.40;99.90
22769;DHT22;13001;51.968;5.918;2024-02-15T12:04:44;15.40;99.90
22769;DHT22;13001;51.968;5.918;2024-02-15T12:07:29;15.60;99.90
22769;DHT22;13001;51.968;5.918;2024-02-15T12:10:17;15.70;99.90
22769;DHT22;13001;51.968;5.918;2024-02-15T12:13:03;15.70;99.90
22769;DHT22;13001;51.968;5.918;2024-02-15T12:16:01;15.90;99.90
22769;DHT22;13001;51.968;5.918;2024-02-15T12:18:47;16.00;99.90
22769;DHT22;13001;51.968;5.918;2024-02-15T12:21:24;16.20;99.90
22769;DHT22;13001;51.968;5.918;2024-02-15T12:23:49;16.20;99.90
22769;DHT22;13001;51.968;5.918;2024-02-15T12:26:22;16.20;99.90
22769;DHT22;13001;51.968;5.918;2024-02-15T12:28:53;16.30;99.90
22769;DHT22;13001;51.968;5.918;2024-02-15T12:31:22;16.40;99.90
22769;DHT22;13001;51.968;5.918;2024-02-15T12:34:02;16.40;99.90
22769;DHT22;13001;51.968;5.918;2024-02-15T12:36:36;16.40;99.90
22769;DHT22;13001;51.968;5.918;2024-02-15T12:39:04;16.40;99.90
22769;DHT22;13001;51.968;5.918;2024-02-15T12:41:33;16.30;99.90
22769;DHT22;13001;51.968;5.918;2024-02-15T12:44:01;16.30;99.90
22769;DHT22;13001;51.968;5.918;2024-02-15T12:46:30;16.20;99.90
22769;DHT22;13001;51.968;5.918;2024-02-15T12:51:52;16.40;99.90
22769;DHT22;13001;51.968;5.918;2024-02-15T12:54:20;16.60;99.90
22769;DHT22;13001;51.968;5.918;2024-02-15T12:56:48;16.70;99.90
22769;DHT22;13001;51.968;5.918;2024-02-15T12:59:17;16.70;99.90
22769;DHT22;13001;51.968;5.918;2024-02-15T13:01:49;16.80;99.90
22769;DHT22;13001;51.968;5.918;2024-02-15T13:04:23;16.90;99.90
22769;DHT22;13001;51.968;5.918;2024-02-15T13:06:50;17.00;99.90
22769;DHT22;13001;51.968;5.918;2024-02-15T13:09:18;17.00;99.90
22769;DHT22;13001;51.968;5.918;2024-02-15T13:11:45;16.90;99.90
22769;DHT22;13001;51.968;5.918;2024-02-15T13:14:13;16.90;99.90
22769;DHT22;13001;51.968;5.918;2024-02-15T13:16:41;16.90;99.90
22769;DHT22;13001;51.968;5.918;2024-02-15T13:19:10;16.80;99.90
22769;DHT22;13001;51.968;5.918;2024-02-15T13:21:37;16.70;99.90
22769;DHT22;13001;51.968;5.918;2024-02-15T13:24:05;16.60;99.90
22769;DHT22;13001;51.968;5.918;2024-02-15T13:26:34;16.50;99.90
22769;DHT22;13001;51.968;5.918;2024-02-15T13:29:03;16.40;99.90
22769;DHT22;13001;51.968;5.918;2024-02-15T13:31:31;16.20;99.90
22769;DHT22;13001;51.968;5.918;2024-02-15T13:33:59;16.20;99.90
22769;DHT22;13001;51.968;5.918;2024-02-15T13:36:26;16.10;99.90
22769;DHT22;13001;51.968;5.918;2024-02-15T13:38:55;16.10;99.90
22769;DHT22;13001;51.968;5.918;2024-02-15T13:41:23;16.00;99.90
22769;DHT22;13001;51.968;5.918;2024-02-15T13:43:51;15.90;99.90
22769;DHT22;13001;51.968;5.918;2024-02-15T13:46:18;15.90;99.90
22769;DHT22;13001;51.968;5.918;2024-02-15T13:48:47;15.90;99.90
22769;DHT22;13001;51.968;5.918;2024-02-15T13:51:15;15.90;99.90
22769;DHT22;13001;51.968;5.918;2024-02-15T13:53:42;15.90;99.90
22769;DHT22;13001;51.968;5.918;2024-02-15T13:56:10;15.90;99.90
22769;DHT22;13001;51.968;5.918;2024-02-15T13:58:38;15.90;99.90
22769;DHT22;13001;51.968;5.918;2024-02-15T14:01:07;15.90;99.90
22769;DHT22;13001;51.968;5.918;2024-02-15T14:03:36;15.90;99.90
22769;DHT22;13001;51.968;5.918;2024-02-15T14:06:04;15.90;99.90
22769;DHT22;13001;51.968;5.918;2024-02-15T14:08:31;15.90;99.90
22769;DHT22;13001;51.968;5.918;2024-02-15T14:11:02;15.90;99.90
22769;DHT22;13001;51.968;5.918;2024-02-15T14:13:29;15.90;99.90
22769;DHT22;13001;51.968;5.918;2024-02-15T14:15:57;16.00;99.90
22769;DHT22;13001;51.968;5.918;2024-02-15T14:18:27;16.00;99.90
22769;DHT22;13001;51.968;5.918;2024-02-15T14:20:54;16.20;99.90
22769;DHT22;13001;51.968;5.918;2024-02-15T14:23:22;16.30;99.90
22769;DHT22;13001;51.968;5.918;2024-02-15T14:25:51;16.40;99.90
22769;DHT22;13001;51.968;5.918;2024-02-15T14:28:19;16.50;99.90
22769;DHT22;13001;51.968;5.918;2024-02-15T14:30:47;16.50;99.90
22769;DHT22;13001;51.968;5.918;2024-02-15T14:33:32;16.50;99.90
22769;DHT22;13001;51.968;5.918;2024-02-15T14:36:00;16.50;99.90
22769;DHT22;13001;51.968;5.918;2024-02-15T14:38:28;16.60;99.90
22769;DHT22;13001;51.968;5.918;2024-02-15T14:40:55;16.60;99.90
22769;DHT22;13001;51.968;5.918;2024-02-15T14:43:24;16.50;99.90
22769;DHT22;13001;51.968;5.918;2024-02-15T14:45:53;16.40;99.90
22769;DHT22;13001;51.968;5.918;2024-02-15T14:48:22;16.30;99.90
22769;DHT22;13001;51.968;5.918;2024-02-15T14:50:50;16.20;99.90
22769;DHT22;13001;51.968;5.918;2024-02-15T14:53:19;16.10;99.90
22769;DHT22;13001;51.968;5.918;2024-02-15T14:55:46;16.00;99.90
22769;DHT22;13001;51.968;5.918;2024-02-15T14:58:15;16.00;99.90
22769;DHT22;13001;51.968;5.918;2024-02-15T15:00:44;16.00;99.90
22769;DHT22;13001;51.968;5.918;2024-02-15T15:03:12;16.00;99.90
22769;DHT22;13001;51.968;5.918;2024-02-15T15:05:41;16.10;99.90
22769;DHT22;13001;51.968;5.918;2024-02-15T15:08:26;16.10;99.90
22769;DHT22;13001;51.968;5.918;2024-02-15T15:11:12;16.20;99.90
22769;DHT22;13001;51.968;5.918;2024-02-15T15:13:58;16.10;99.90
22769;DHT22;13001;51.968;5.918;2024-02-15T15:16:25;16.10;99.90
22769;DHT22;13001;51.968;5.918;2024-02-15T15:18:54;16.10;99.90
22769;DHT22;13001;51.968;5.918;2024-02-15T15:21:22;16.00;99.90
22769;DHT22;13001;51.968;5.918;2024-02-15T15:23:49;15.90;99.90
22769;DHT22;13001;51.968;5.918;2024-02-15T15:26:22;15.90;99.90
22769;DHT22;13001;51.968;5.918;2024-02-15T15:28:49;15.80;99.90
22769;DHT22;13001;51.968;5.918;2024-02-15T15:31:17;15.80;99.90
22769;DHT22;13001;51.968;5.918;2024-02-15T15:33:48;15.70;99.90
22769;DHT22;13001;51.968;5.918;2024-02-15T15:36:16;15.70;99.90
22769;DHT22;13001;51.968;5.918;2024-02-15T15:38:45;15.70;99.90
22769;DHT22;13001;51.968;5.918;2024-02-15T15:41:13;15.60;99.90
22769;DHT22;13001;51.968;5.918;2024-02-15T15:43:43;15.60;99.90
22769;DHT22;13001;51.968;5.918;2024-02-15T15:46:16;15.60;99.90
22769;DHT22;13001;51.968;5.918;2024-02-15T15:48:44;15.60;99.90
22769;DHT22;13001;51.968;5.918;2024-02-15T15:51:13;15.50;99.90
22769;DHT22;13001;51.968;5.918;2024-02-15T15:53:42;15.50;99.90
22769;DHT22;13001;51.968;5.918;2024-02-15T15:56:11;15.50;99.90